createdAt,value
2019-05-11T00:00:32.272Z,7.7
2019-05-11T00:01:32.322Z,7.6
2019-05-11T00:02:32.368Z,7.6
2019-05-11T00:03:32.426Z,7.6
2019-05-11T00:04:32.436Z,7.6
2019-05-11T00:05:32.495Z,7.6
2019-05-11T00:06:32.539Z,7.6
2019-05-11T00:07:32.594Z,7.7
2019-05-11T00:08:32.625Z,7.7
2019-05-11T00:09:32.708Z,7.7
2019-05-11T00:10:32.721Z,7.7
2019-05-11T00:11:32.733Z,7.6
2019-05-11T00:12:32.790Z,7.5
2019-05-11T00:13:32.833Z,7.6
2019-05-11T00:14:32.884Z,7.6
2019-05-11T00:15:32.927Z,7.6
2019-05-11T00:16:32.961Z,7.6
2019-05-11T00:17:33.023Z,7.6
2019-05-11T00:18:33.069Z,7.5
2019-05-11T00:19:35.581Z,7.5
2019-05-11T00:20:33.115Z,7.5
2019-05-11T00:21:33.117Z,7.5
2019-05-11T00:22:33.163Z,7.5
2019-05-11T00:23:33.211Z,7.5
2019-05-11T00:24:33.256Z,7.5
2019-05-11T00:25:33.264Z,7.6
2019-05-11T00:26:33.311Z,7.6
2019-05-11T00:27:33.423Z,7.6
2019-05-11T00:28:33.394Z,7.6
2019-05-11T00:29:33.444Z,7.6
2019-05-11T00:30:33.434Z,7.6
2019-05-11T00:31:33.449Z,7.5
2019-05-11T00:32:33.520Z,7.5
2019-05-11T00:33:33.552Z,7.5
2019-05-11T00:34:33.558Z,7.5
2019-05-11T00:35:33.589Z,7.6
2019-05-11T00:36:33.670Z,7.5
2019-05-11T00:37:33.632Z,7.6
2019-05-11T00:38:33.678Z,7.6
2019-05-11T00:39:33.715Z,7.5
2019-05-11T00:40:33.709Z,7.6
2019-05-11T00:41:33.718Z,7.6
2019-05-11T00:42:33.750Z,7.6
2019-05-11T00:43:33.774Z,7.6
2019-05-11T00:44:33.816Z,7.6
2019-05-11T00:45:33.841Z,7.7
2019-05-11T00:46:33.840Z,7.7
2019-05-11T00:47:33.864Z,7.7
2019-05-11T00:48:33.878Z,7.7
2019-05-11T00:49:33.887Z,7.7
2019-05-11T00:50:39.054Z,7.6
2019-05-11T00:51:33.887Z,7.5
2019-05-11T00:52:33.907Z,7.6
2019-05-11T00:53:33.919Z,7.6
2019-05-11T00:54:33.921Z,7.7
2019-05-11T00:55:33.923Z,7.6
2019-05-11T00:56:33.995Z,7.5
2019-05-11T00:57:33.963Z,7.5
2019-05-11T00:58:33.972Z,7.5
2019-05-11T00:59:33.949Z,7.5
2019-05-11T01:00:33.945Z,7.4
2019-05-11T01:01:33.978Z,7.4
2019-05-11T01:02:33.977Z,7.4
2019-05-11T01:03:34.065Z,7.4
2019-05-11T01:04:33.991Z,7.4
2019-05-11T01:05:33.999Z,7.3
2019-05-11T01:06:34.016Z,7.3
2019-05-11T01:07:34.008Z,7.3
2019-05-11T01:08:34.009Z,7.3
2019-05-11T01:09:34.073Z,7.3
2019-05-11T01:10:41.917Z,7.2
2019-05-11T01:11:34.130Z,7.1
2019-05-11T01:12:34.179Z,7.2
2019-05-11T01:13:34.258Z,7.1
2019-05-11T01:14:34.274Z,7.1
2019-05-11T01:15:34.358Z,7
2019-05-11T01:16:34.353Z,7
2019-05-11T01:17:34.421Z,6.9
2019-05-11T01:18:34.460Z,6.9
2019-05-11T01:19:34.605Z,7
2019-05-11T01:20:34.537Z,7
2019-05-11T01:21:34.615Z,6.9
2019-05-11T01:22:34.636Z,6.9
2019-05-11T01:23:34.715Z,6.9
2019-05-11T01:24:34.732Z,7
2019-05-11T01:25:34.754Z,7
2019-05-11T01:26:34.817Z,7
2019-05-11T01:27:34.872Z,7
2019-05-11T01:28:34.930Z,7
2019-05-11T01:29:34.943Z,6.9
2019-05-11T01:30:35.028Z,6.8
2019-05-11T01:31:35.053Z,6.7
2019-05-11T01:32:35.128Z,6.8
2019-05-11T01:33:35.120Z,6.7
2019-05-11T01:34:35.161Z,6.7
2019-05-11T01:35:35.170Z,6.6
2019-05-11T01:36:35.200Z,6.6
2019-05-11T01:37:35.285Z,6.6
2019-05-11T01:38:35.345Z,6.6
2019-05-11T01:39:35.371Z,6.6
2019-05-11T01:40:35.445Z,6.6
2019-05-11T01:41:35.542Z,6.6
2019-05-11T01:42:35.511Z,6.6
2019-05-11T01:43:35.688Z,6.6
2019-05-11T01:44:35.595Z,6.6
2019-05-11T01:45:35.640Z,6.6
2019-05-11T01:46:35.694Z,6.6
2019-05-11T01:47:35.721Z,6.6
2019-05-11T01:48:35.778Z,6.6
2019-05-11T01:49:35.842Z,6.5
2019-05-11T01:50:35.813Z,6.5
2019-05-11T01:51:35.889Z,6.5
2019-05-11T01:52:36.064Z,6.5
2019-05-11T01:53:36.017Z,6.5
2019-05-11T01:54:35.933Z,6.5
2019-05-11T01:55:36.049Z,6.5
2019-05-11T01:56:36.031Z,6.5
2019-05-11T01:57:36.070Z,6.5
2019-05-11T01:58:36.078Z,6.5
2019-05-11T01:59:36.086Z,6.5
2019-05-11T02:00:36.098Z,6.5
2019-05-11T02:01:36.130Z,6.5
2019-05-11T02:02:36.168Z,6.5
2019-05-11T02:03:36.212Z,6.6
2019-05-11T02:04:36.273Z,6.5
2019-05-11T02:05:36.304Z,6.6
2019-05-11T02:06:36.326Z,6.5
2019-05-11T02:07:36.331Z,6.4
2019-05-11T02:08:36.381Z,6.4
2019-05-11T02:09:36.388Z,6.4
2019-05-11T02:10:36.440Z,6.4
2019-05-11T02:11:36.565Z,6.4
2019-05-11T02:12:37.540Z,6.4
2019-05-11T02:13:36.542Z,6.4
2019-05-11T02:14:36.571Z,6.4
2019-05-11T02:15:36.692Z,6.4
2019-05-11T02:16:36.630Z,6.5
2019-05-11T02:17:36.653Z,6.4
2019-05-11T02:18:36.689Z,6.5
2019-05-11T02:19:36.688Z,6.4
2019-05-11T02:20:36.693Z,6.4
2019-05-11T02:21:36.734Z,6.4
2019-05-11T02:22:36.761Z,6.4
2019-05-11T02:23:36.775Z,6.4
2019-05-11T02:24:36.820Z,6.4
2019-05-11T02:25:36.837Z,6.5
2019-05-11T02:26:36.882Z,6.3
2019-05-11T02:27:36.884Z,6.3
2019-05-11T02:28:36.910Z,6.2
2019-05-11T02:29:36.932Z,6.2
2019-05-11T02:30:36.980Z,6.2
2019-05-11T02:31:37.235Z,6.2
2019-05-11T02:32:37.025Z,6.2
2019-05-11T02:33:37.046Z,6.2
2019-05-11T02:34:37.071Z,6.1
2019-05-11T02:35:37.108Z,6.1
2019-05-11T02:36:37.094Z,6.1
2019-05-11T02:37:37.127Z,6.1
2019-05-11T02:38:37.125Z,6.1
2019-05-11T02:39:37.145Z,6.1
2019-05-11T02:40:37.145Z,6.1
2019-05-11T02:41:37.720Z,6.1
2019-05-11T02:42:37.200Z,6.1
2019-05-11T02:43:37.182Z,6.1
2019-05-11T02:44:37.210Z,6.1
2019-05-11T02:45:37.239Z,6.1
2019-05-11T02:46:37.231Z,6
2019-05-11T02:47:37.262Z,6
2019-05-11T02:48:37.238Z,5.9
2019-05-11T02:49:37.234Z,5.9
2019-05-11T02:50:37.239Z,5.9
2019-05-11T02:51:37.246Z,5.9
2019-05-11T02:52:37.241Z,5.8
2019-05-11T02:53:37.252Z,5.8
2019-05-11T02:54:37.270Z,5.8
2019-05-11T02:55:37.259Z,5.8
2019-05-11T02:56:37.289Z,5.8
2019-05-11T02:57:37.485Z,5.7
2019-05-11T02:58:37.412Z,5.7
2019-05-11T02:59:37.486Z,5.7
2019-05-11T03:00:37.542Z,5.7
2019-05-11T03:01:37.527Z,5.8
2019-05-11T03:02:37.579Z,5.8
2019-05-11T03:03:37.689Z,5.9
2019-05-11T03:04:37.664Z,5.9
2019-05-11T03:05:37.710Z,5.9
2019-05-11T03:06:37.773Z,5.9
2019-05-11T03:07:37.821Z,5.8
2019-05-11T03:08:37.847Z,5.9
2019-05-11T03:09:37.888Z,5.9
2019-05-11T03:10:38.056Z,5.8
2019-05-11T03:11:53.921Z,5.8
2019-05-11T03:12:38.058Z,5.8
2019-05-11T03:13:38.219Z,5.8
2019-05-11T03:14:38.172Z,5.8
2019-05-11T03:15:38.253Z,5.8
2019-05-11T03:16:38.288Z,5.8
2019-05-11T03:17:38.290Z,5.8
2019-05-11T03:18:38.315Z,5.9
2019-05-11T03:19:38.373Z,6
2019-05-11T03:20:38.392Z,6
2019-05-11T03:21:39.524Z,5.9
2019-05-11T03:22:38.525Z,5.9
2019-05-11T03:23:38.553Z,5.8
2019-05-11T03:24:38.582Z,5.8
2019-05-11T03:25:38.669Z,5.7
2019-05-11T03:26:38.774Z,5.7
2019-05-11T03:27:38.743Z,5.7
2019-05-11T03:28:38.792Z,5.7
2019-05-11T03:29:38.827Z,5.7
2019-05-11T03:30:38.859Z,5.7
2019-05-11T03:31:38.841Z,5.7
2019-05-11T03:32:38.902Z,5.7
2019-05-11T03:33:38.965Z,5.7
2019-05-11T03:34:38.981Z,5.8
2019-05-11T03:35:39.044Z,5.8
2019-05-11T03:36:39.050Z,5.8
2019-05-11T03:37:39.101Z,5.8
2019-05-11T03:38:39.081Z,5.8
2019-05-11T03:39:39.123Z,5.8
2019-05-11T03:40:39.218Z,5.8
2019-05-11T03:41:39.225Z,5.8
2019-05-11T03:42:39.288Z,5.8
2019-05-11T03:43:39.280Z,6
2019-05-11T03:44:39.328Z,5.8
2019-05-11T03:45:39.401Z,5.9
2019-05-11T03:46:39.373Z,5.9
2019-05-11T03:47:39.418Z,5.9
2019-05-11T03:48:39.459Z,5.9
2019-05-11T03:49:39.493Z,6
2019-05-11T03:50:39.550Z,6.1
2019-05-11T03:51:39.507Z,6.1
2019-05-11T03:52:39.562Z,6.2
2019-05-11T03:53:39.591Z,6.1
2019-05-11T03:54:39.613Z,6.1
2019-05-11T03:55:39.625Z,6.2
2019-05-11T03:56:39.676Z,6.2
2019-05-11T03:57:39.726Z,6.1
2019-05-11T03:58:39.751Z,6.3
2019-05-11T03:59:39.799Z,6.4
2019-05-11T04:00:39.811Z,6.5
2019-05-11T04:01:39.939Z,6.4
2019-05-11T04:02:39.881Z,6.3
2019-05-11T04:03:39.890Z,6.2
2019-05-11T04:04:39.998Z,6.2
2019-05-11T04:05:39.936Z,6.2
2019-05-11T04:06:40.005Z,6.2
2019-05-11T04:07:40.003Z,6.2
2019-05-11T04:08:40.134Z,6.2
2019-05-11T04:09:40.061Z,6.2
2019-05-11T04:10:40.074Z,6.1
2019-05-11T04:11:40.094Z,6.2
2019-05-11T04:12:40.129Z,6.2
2019-05-11T04:13:40.142Z,6.2
2019-05-11T04:14:40.169Z,6.2
2019-05-11T04:15:40.178Z,6.2
2019-05-11T04:16:40.170Z,6.1
2019-05-11T04:17:40.183Z,6.1
2019-05-11T04:18:40.223Z,6.1
2019-05-11T04:19:40.238Z,6.1
2019-05-11T04:20:40.234Z,6.1
2019-05-11T04:21:40.282Z,6.1
2019-05-11T04:22:40.272Z,6.1
2019-05-11T04:23:40.271Z,6.1
2019-05-11T04:24:40.297Z,6.1
2019-05-11T04:25:40.325Z,6.1
2019-05-11T04:26:40.323Z,6.1
2019-05-11T04:27:40.306Z,6.2
2019-05-11T04:28:40.344Z,6.1
2019-05-11T04:29:40.341Z,6.2
2019-05-11T04:30:40.332Z,6.2
2019-05-11T04:31:40.467Z,6.2
2019-05-11T04:32:40.343Z,6.3
2019-05-11T04:33:40.367Z,6.3
2019-05-11T04:34:40.361Z,6.3
2019-05-11T04:35:40.337Z,6.4
2019-05-11T04:36:40.363Z,6.4
2019-05-11T04:37:40.349Z,6.5
2019-05-11T04:38:40.425Z,6.5
2019-05-11T04:39:40.444Z,6.5
2019-05-11T04:40:40.521Z,6.6
2019-05-11T04:41:40.573Z,6.6
2019-05-11T04:42:53.815Z,6.7
2019-05-11T04:43:40.715Z,6.8
2019-05-11T04:44:40.738Z,6.9
2019-05-11T04:45:40.746Z,7
2019-05-11T04:46:40.822Z,7.2
2019-05-11T04:47:40.913Z,7.3
2019-05-11T04:48:40.913Z,7.2
2019-05-11T04:49:40.970Z,7.3
2019-05-11T04:50:40.969Z,7.3
2019-05-11T04:51:41.005Z,7.4
2019-05-11T04:52:41.042Z,7.4
2019-05-11T04:53:41.101Z,7.5
2019-05-11T04:54:41.146Z,7.4
2019-05-11T04:55:41.207Z,7.4
2019-05-11T04:56:41.268Z,7.5
2019-05-11T04:57:41.330Z,7.5
2019-05-11T04:58:41.372Z,7.6
2019-05-11T04:59:41.406Z,7.6
2019-05-11T05:00:41.444Z,7.6
2019-05-11T05:01:41.502Z,7.6
2019-05-11T05:02:41.547Z,7.6
2019-05-11T05:03:47.249Z,7.6
2019-05-11T05:04:41.626Z,7.6
2019-05-11T05:05:41.671Z,7.7
2019-05-11T05:06:41.727Z,7.8
2019-05-11T05:07:47.537Z,7.8
2019-05-11T05:08:41.825Z,7.8
2019-05-11T05:09:42.361Z,7.8
2019-05-11T05:10:41.914Z,7.8
2019-05-11T05:11:41.956Z,7.7
2019-05-11T05:12:50.349Z,7.8
2019-05-11T05:13:42.036Z,8
2019-05-11T05:14:42.088Z,8.1
2019-05-11T05:15:42.136Z,8.1
2019-05-11T05:16:42.177Z,8
2019-05-11T05:17:42.198Z,7.9
2019-05-11T05:18:42.265Z,7.9
2019-05-11T05:19:42.267Z,7.6
2019-05-11T05:20:43.871Z,7.4
2019-05-11T05:21:42.419Z,7.5
2019-05-11T05:22:42.428Z,7.6
2019-05-11T05:23:42.420Z,7.5
2019-05-11T05:24:42.499Z,7.6
2019-05-11T05:25:42.573Z,7.7
2019-05-11T05:26:42.585Z,7.6
2019-05-11T05:27:42.629Z,7.8
2019-05-11T05:28:45.477Z,7.9
2019-05-11T05:29:42.788Z,7.7
2019-05-11T05:30:42.714Z,7.7
2019-05-11T05:31:42.766Z,7.6
2019-05-11T05:32:42.773Z,7.6
2019-05-11T05:33:42.845Z,7.5
2019-05-11T05:34:42.869Z,7.3
2019-05-11T05:35:42.906Z,7.5
2019-05-11T05:36:42.957Z,7.6
2019-05-11T05:37:42.993Z,7.6
2019-05-11T05:38:43.033Z,7.6
2019-05-11T05:39:43.076Z,7.6
2019-05-11T05:40:43.103Z,7.5
2019-05-11T05:41:43.154Z,7.4
2019-05-11T05:42:43.221Z,7.4
2019-05-11T05:43:43.218Z,7.2
2019-05-11T05:44:43.258Z,7.3
2019-05-11T05:45:43.254Z,7.4
2019-05-11T05:46:43.304Z,7.5
2019-05-11T05:47:43.309Z,7.5
2019-05-11T05:48:43.349Z,7.7
2019-05-11T05:49:43.369Z,7.8
2019-05-11T05:50:43.358Z,7.9
2019-05-11T05:51:43.451Z,8
2019-05-11T05:52:43.404Z,8
2019-05-11T05:53:43.443Z,7.9
2019-05-11T05:54:43.447Z,7.8
2019-05-11T05:55:43.503Z,7.7
2019-05-11T05:56:43.493Z,7.8
2019-05-11T05:57:43.520Z,7.7
2019-05-11T05:58:43.546Z,7.7
2019-05-11T05:59:43.585Z,7.8
2019-05-11T06:00:43.578Z,7.7
2019-05-11T06:01:43.705Z,7.6
2019-05-11T06:02:43.646Z,7.6
2019-05-11T06:03:43.668Z,7.7
2019-05-11T06:04:43.685Z,7.6
2019-05-11T06:05:43.750Z,7.5
2019-05-11T06:06:43.781Z,7.3
2019-05-11T06:07:43.839Z,7.4
2019-05-11T06:08:43.811Z,7.4
2019-05-11T06:09:43.861Z,7.6
2019-05-11T06:10:43.821Z,7.6
2019-05-11T06:11:43.861Z,7.7
2019-05-11T06:12:43.969Z,7.8
2019-05-11T06:13:45.729Z,7.7
2019-05-11T06:14:43.928Z,7.5
2019-05-11T06:15:43.933Z,7.4
2019-05-11T06:16:43.965Z,7.5
2019-05-11T06:17:43.983Z,7.6
2019-05-11T06:18:43.963Z,7.6
2019-05-11T06:19:43.978Z,7.7
2019-05-11T06:20:43.997Z,7.8
2019-05-11T06:21:44.031Z,7.7
2019-05-11T06:22:44.052Z,7.6
2019-05-11T06:23:44.088Z,7.8
2019-05-11T06:24:44.077Z,7.6
2019-05-11T06:25:44.214Z,7.8
2019-05-11T06:26:44.097Z,7.8
2019-05-11T06:27:44.163Z,7.8
2019-05-11T06:28:44.108Z,7.6
2019-05-11T06:29:44.123Z,7.7
2019-05-11T06:30:44.148Z,7.9
2019-05-11T06:31:44.139Z,8.2
2019-05-11T06:32:44.144Z,8.2
2019-05-11T06:33:44.177Z,8
2019-05-11T06:34:44.193Z,8
2019-05-11T06:35:44.148Z,8.2
2019-05-11T06:36:44.167Z,8.2
2019-05-11T06:37:44.212Z,8.2
2019-05-11T06:38:44.176Z,8
2019-05-11T06:39:44.209Z,8.2
2019-05-11T06:40:44.243Z,8.2
2019-05-11T06:41:44.317Z,8.1
2019-05-11T06:42:44.318Z,8.2
2019-05-11T06:43:59.455Z,8.3
2019-05-11T06:44:44.423Z,8.3
2019-05-11T06:45:44.427Z,8.4
2019-05-11T06:46:44.507Z,8.4
2019-05-11T06:47:44.603Z,8.5
2019-05-11T06:48:44.596Z,8.6
2019-05-11T06:49:44.652Z,8.6
2019-05-11T06:50:44.752Z,8.4
2019-05-11T06:51:44.798Z,8.4
2019-05-11T06:52:44.799Z,8.2
2019-05-11T06:53:44.831Z,8
2019-05-11T06:54:44.851Z,7.8
2019-05-11T06:55:44.900Z,8
2019-05-11T06:56:46.007Z,8.1
2019-05-11T06:57:45.030Z,8
2019-05-11T06:58:45.627Z,8.1
2019-05-11T06:59:45.128Z,8.1
2019-05-11T07:00:45.308Z,8.2
2019-05-11T07:01:46.314Z,8.2
2019-05-11T07:02:45.293Z,8.2
2019-05-11T07:03:45.452Z,8.2
2019-05-11T07:04:45.413Z,8.2
2019-05-11T07:05:45.492Z,8.1
2019-05-11T07:06:45.519Z,8.2
2019-05-11T07:07:47.752Z,8.1
2019-05-11T07:08:45.643Z,8.3
2019-05-11T07:09:45.675Z,8.5
2019-05-11T07:10:45.706Z,8.4
2019-05-11T07:11:45.776Z,8.4
2019-05-11T07:12:45.803Z,8.4
2019-05-11T07:13:45.869Z,8.4
2019-05-11T07:14:45.922Z,8.4
2019-05-11T07:15:45.953Z,8.2
2019-05-11T07:16:46.076Z,8.3
2019-05-11T07:17:46.047Z,8.2
2019-05-11T07:18:46.079Z,8.4
2019-05-11T07:19:47.562Z,8.3
2019-05-11T07:20:50.320Z,8.4
2019-05-11T07:21:46.215Z,8.5
2019-05-11T07:22:46.252Z,8.8
2019-05-11T07:23:46.295Z,8.9
2019-05-11T07:24:46.332Z,9.2
2019-05-11T07:25:46.388Z,9.1
2019-05-11T07:26:46.418Z,9
2019-05-11T07:27:46.435Z,9.2
2019-05-11T07:28:46.450Z,9.3
2019-05-11T07:29:46.473Z,9.4
2019-05-11T07:30:46.539Z,9.4
2019-05-11T07:31:46.544Z,9.6
2019-05-11T07:32:48.134Z,9.7
2019-05-11T07:33:48.588Z,9.6
2019-05-11T07:34:48.683Z,9.4
2019-05-11T07:35:47.808Z,9.5
2019-05-11T07:36:47.667Z,9.7
2019-05-11T07:37:47.841Z,9.9
2019-05-11T07:38:48.689Z,9.9
2019-05-11T07:39:48.702Z,10.1
2019-05-11T07:40:47.623Z,10.3
2019-05-11T07:41:47.780Z,10.4
2019-05-11T07:42:48.498Z,10.3
2019-05-11T07:43:48.435Z,10.2
2019-05-11T07:44:48.076Z,10.1
2019-05-11T07:45:47.939Z,10.1
2019-05-11T07:46:48.260Z,10.1
2019-05-11T07:47:48.515Z,10.1
2019-05-11T07:48:47.886Z,10.4
2019-05-11T07:49:48.829Z,10.5
2019-05-11T07:50:47.899Z,10.8
2019-05-11T07:51:48.092Z,10.9
2019-05-11T07:52:48.253Z,11
2019-05-11T07:53:48.584Z,11
2019-05-11T07:54:51.938Z,11.2
2019-05-11T07:55:48.447Z,11.3
2019-05-11T07:56:47.879Z,11.4
2019-05-11T07:57:48.091Z,11.5
2019-05-11T07:58:48.049Z,11.6
2019-05-11T07:59:48.600Z,11.6
2019-05-11T08:00:48.818Z,11.7
2019-05-11T08:01:47.915Z,11.6
2019-05-11T08:02:47.970Z,11.7
2019-05-11T08:03:48.238Z,11.7
2019-05-11T08:04:48.123Z,11.7
2019-05-11T08:05:47.897Z,11.7
2019-05-11T08:06:47.887Z,11.8
2019-05-11T08:07:48.108Z,11.8
2019-05-11T08:08:48.973Z,11.9
2019-05-11T08:09:48.247Z,11.9
2019-05-11T08:10:48.250Z,12
2019-05-11T08:11:47.850Z,12
2019-05-11T08:12:48.033Z,12
2019-05-11T08:13:48.045Z,11.9
2019-05-11T08:14:57.425Z,12
2019-05-11T08:15:48.784Z,12
2019-05-11T08:16:48.013Z,12.1
2019-05-11T08:17:48.657Z,12.1
2019-05-11T08:18:48.090Z,12.2
2019-05-11T08:19:47.674Z,12.1
2019-05-11T08:20:47.915Z,12.1
2019-05-11T08:21:48.035Z,12.1
2019-05-11T08:22:48.150Z,12.2
2019-05-11T08:23:48.285Z,12.2
2019-05-11T08:24:48.085Z,12.2
2019-05-11T08:25:48.574Z,12.2
2019-05-11T08:26:47.979Z,12.2
2019-05-11T08:27:48.452Z,12.2
2019-05-11T08:28:48.553Z,12.3
2019-05-11T08:29:48.708Z,12.4
2019-05-11T08:30:48.580Z,12.4
2019-05-11T08:31:48.730Z,12.4
2019-05-11T08:32:49.259Z,12.4
2019-05-11T08:33:48.127Z,12.5
2019-05-11T08:34:49.035Z,12.5
2019-05-11T08:35:48.096Z,12.5
2019-05-11T08:36:48.060Z,12.5
2019-05-11T08:37:48.809Z,12.5
2019-05-11T08:38:48.357Z,12.4
2019-05-11T08:39:48.278Z,12.4
2019-05-11T08:40:48.615Z,12.3
2019-05-11T08:41:48.728Z,12.3
2019-05-11T08:42:48.375Z,12.3
2019-05-11T08:43:48.241Z,12.3
2019-05-11T08:44:48.419Z,12.3
2019-05-11T08:45:48.654Z,12.2
2019-05-11T08:46:48.225Z,12.2
2019-05-11T08:47:48.659Z,12.3
2019-05-11T08:48:48.346Z,12.2
2019-05-11T08:49:48.577Z,12.1
2019-05-11T08:50:48.907Z,12.1
2019-05-11T08:51:48.501Z,12.2
2019-05-11T08:52:48.538Z,12.3
2019-05-11T08:53:48.594Z,12.3
2019-05-11T08:54:48.811Z,12.4
2019-05-11T08:55:48.740Z,12.3
2019-05-11T08:56:48.785Z,12.3
2019-05-11T08:57:48.759Z,12.4
2019-05-11T08:58:49.269Z,12.4
2019-05-11T08:59:48.862Z,12.4
2019-05-11T09:00:48.911Z,12.3
2019-05-11T09:01:49.010Z,12.3
2019-05-11T09:02:50.611Z,12.3
2019-05-11T09:03:48.985Z,12.2
2019-05-11T09:04:49.251Z,12.2
2019-05-11T09:05:49.039Z,12.2
2019-05-11T09:06:49.088Z,12.2
2019-05-11T09:07:49.199Z,12.3
2019-05-11T09:08:49.479Z,12.3
2019-05-11T09:09:49.210Z,12.3
2019-05-11T09:10:49.345Z,12.3
2019-05-11T09:11:49.289Z,12.3
2019-05-11T09:12:51.570Z,12.4
2019-05-11T09:13:49.691Z,12.5
2019-05-11T09:14:49.420Z,12.5
2019-05-11T09:15:49.791Z,12.5
2019-05-11T09:16:49.538Z,12.6
2019-05-11T09:17:49.593Z,12.6
2019-05-11T09:18:49.587Z,12.5
2019-05-11T09:19:49.638Z,12.2
2019-05-11T09:20:49.720Z,12.1
2019-05-11T09:21:49.734Z,12
2019-05-11T09:22:49.769Z,12.1
2019-05-11T09:23:49.842Z,12
2019-05-11T09:24:49.955Z,12
2019-05-11T09:25:49.923Z,12
2019-05-11T09:26:49.944Z,11.9
2019-05-11T09:27:49.973Z,11.7
2019-05-11T09:28:50.015Z,11.4
2019-05-11T09:29:50.054Z,11.5
2019-05-11T09:30:50.095Z,11.3
2019-05-11T09:31:50.129Z,11.2
2019-05-11T09:32:50.165Z,11.2
2019-05-11T09:33:50.328Z,11.3
2019-05-11T09:34:50.215Z,11.2
2019-05-11T09:35:53.234Z,11.2
2019-05-11T09:36:50.317Z,11.1
2019-05-11T09:37:50.299Z,11
2019-05-11T09:38:50.337Z,11.1
2019-05-11T09:39:50.385Z,11
2019-05-11T09:40:50.384Z,10.8
2019-05-11T09:41:50.427Z,10.8
2019-05-11T09:42:50.437Z,11
2019-05-11T09:43:50.481Z,11.1
2019-05-11T09:44:50.459Z,11.2
2019-05-11T09:45:51.851Z,11.4
2019-05-11T09:46:50.514Z,11.2
2019-05-11T09:47:50.610Z,11.1
2019-05-11T09:48:50.526Z,11.1
2019-05-11T09:49:51.164Z,11.2
2019-05-11T09:50:52.919Z,11.2
2019-05-11T09:51:50.595Z,11.4
2019-05-11T09:52:51.246Z,11.6
2019-05-11T09:53:50.652Z,11.6
2019-05-11T09:54:50.675Z,11.7
2019-05-11T09:55:50.700Z,11.7
2019-05-11T09:56:58.221Z,11.7
2019-05-11T09:57:50.704Z,11.8
2019-05-11T09:58:51.046Z,11.9
2019-05-11T09:59:50.752Z,11.9
2019-05-11T10:00:50.930Z,11.8
2019-05-11T10:01:50.778Z,11.8
2019-05-11T10:02:50.767Z,11.8
2019-05-11T10:03:50.808Z,11.7
2019-05-11T10:04:50.803Z,11.7
2019-05-11T10:05:50.824Z,11.8
2019-05-11T10:06:50.801Z,11.9
2019-05-11T10:07:50.832Z,12.1
2019-05-11T10:08:50.834Z,12.1
2019-05-11T10:09:50.848Z,12
2019-05-11T10:10:50.833Z,12
2019-05-11T10:11:50.835Z,12.1
2019-05-11T10:12:52.901Z,12.1
2019-05-11T10:13:50.837Z,12.2
2019-05-11T10:14:50.911Z,12.1
2019-05-11T10:16:03.281Z,12.1
2019-05-11T10:16:50.945Z,12.1
2019-05-11T10:17:50.983Z,12
2019-05-11T10:18:51.062Z,12
2019-05-11T10:19:51.136Z,12
2019-05-11T10:20:51.193Z,12
2019-05-11T10:21:51.251Z,12.1
2019-05-11T10:22:51.256Z,12
2019-05-11T10:23:51.289Z,12.1
2019-05-11T10:24:51.381Z,12.1
2019-05-11T10:25:51.395Z,12.1
2019-05-11T10:26:51.427Z,12.2
2019-05-11T10:27:51.456Z,12.1
2019-05-11T10:28:51.530Z,12.2
2019-05-11T10:29:51.586Z,12.2
2019-05-11T10:30:51.579Z,12.3
2019-05-11T10:31:51.647Z,12.4
2019-05-11T10:32:51.682Z,12.5
2019-05-11T10:33:51.668Z,12.6
2019-05-11T10:34:51.747Z,12.6
2019-05-11T10:35:51.785Z,12.4
2019-05-11T10:36:51.843Z,12.3
2019-05-11T10:37:51.917Z,12.1
2019-05-11T10:38:51.976Z,12.1
2019-05-11T10:39:51.977Z,12
2019-05-11T10:40:54.510Z,11.9
2019-05-11T10:41:52.050Z,11.7
2019-05-11T10:42:52.081Z,11.7
2019-05-11T10:43:52.151Z,11.6
2019-05-11T10:44:52.202Z,11.5
2019-05-11T10:45:52.232Z,11.5
2019-05-11T10:46:52.286Z,11.3
2019-05-11T10:47:54.621Z,11.2
2019-05-11T10:48:52.385Z,11
2019-05-11T10:49:52.411Z,11.2
2019-05-11T10:50:52.476Z,11.3
2019-05-11T10:51:52.512Z,11.5
2019-05-11T10:52:52.561Z,11.3
2019-05-11T10:53:52.587Z,11.4
2019-05-11T10:54:52.626Z,11.2
2019-05-11T10:55:52.674Z,11.4
2019-05-11T10:56:52.706Z,11.6
2019-05-11T10:57:52.766Z,11.5
2019-05-11T10:58:52.802Z,11.3
2019-05-11T10:59:52.846Z,11.3
2019-05-11T11:00:52.899Z,11.5
2019-05-11T11:01:52.886Z,11.6
2019-05-11T11:02:52.987Z,11.7
2019-05-11T11:03:52.986Z,11.7
2019-05-11T11:04:53.017Z,11.8
2019-05-11T11:05:53.027Z,12
2019-05-11T11:06:53.174Z,11.8
2019-05-11T11:07:53.095Z,11.6
2019-05-11T11:08:53.104Z,11.5
2019-05-11T11:09:53.157Z,11.5
2019-05-11T11:10:53.182Z,11.5
2019-05-11T11:11:53.255Z,11.6
2019-05-11T11:12:53.273Z,11.8
2019-05-11T11:13:53.287Z,11.8
2019-05-11T11:14:53.351Z,11.9
2019-05-11T11:15:53.339Z,11.8
2019-05-11T11:16:53.369Z,11.8
2019-05-11T11:17:53.378Z,11.5
2019-05-11T11:18:53.471Z,11.3
2019-05-11T11:19:53.462Z,11.1
2019-05-11T11:20:53.487Z,11
2019-05-11T11:21:53.482Z,11
2019-05-11T11:22:53.529Z,11.1
2019-05-11T11:23:53.570Z,11.1
2019-05-11T11:24:53.605Z,11
2019-05-11T11:25:53.614Z,10.9
2019-05-11T11:26:53.656Z,11
2019-05-11T11:27:53.680Z,11
2019-05-11T11:28:53.692Z,11
2019-05-11T11:29:53.828Z,11
2019-05-11T11:30:53.747Z,11.1
2019-05-11T11:31:53.780Z,11.2
2019-05-11T11:32:53.781Z,11.2
2019-05-11T11:33:55.571Z,11.5
2019-05-11T11:34:53.836Z,11.4
2019-05-11T11:35:53.856Z,11.1
2019-05-11T11:36:53.882Z,11
2019-05-11T11:37:53.877Z,11
2019-05-11T11:38:53.904Z,11.1
2019-05-11T11:39:53.955Z,11.2
2019-05-11T11:40:53.917Z,11.2
2019-05-11T11:41:53.949Z,11.2
2019-05-11T11:42:53.961Z,11.3
2019-05-11T11:43:53.956Z,11.1
2019-05-11T11:44:53.989Z,11.2
2019-05-11T11:45:53.973Z,11.4
2019-05-11T11:46:55.245Z,11.3
2019-05-11T11:47:53.983Z,11.4
2019-05-11T11:48:54.000Z,11.4
2019-05-11T11:49:54.004Z,11.4
2019-05-11T11:50:54.005Z,11.4
2019-05-11T11:51:54.039Z,11.4
2019-05-11T11:52:54.013Z,11.3
2019-05-11T11:53:54.021Z,11.3
2019-05-11T11:54:54.015Z,11.5
2019-05-11T11:55:54.015Z,11.7
2019-05-11T11:56:54.043Z,11.6
2019-05-11T11:57:54.097Z,11.5
2019-05-11T11:58:54.176Z,11.6
2019-05-11T11:59:54.252Z,11.5
2019-05-11T12:00:54.260Z,11.5
2019-05-11T12:01:54.351Z,11.4
2019-05-11T12:02:54.405Z,11.5
2019-05-11T12:03:54.409Z,11.7
2019-05-11T12:04:54.440Z,11.9
2019-05-11T12:05:54.446Z,11.8
2019-05-11T12:06:54.541Z,11.6
2019-05-11T12:07:54.583Z,11.5
2019-05-11T12:08:54.619Z,11.6
2019-05-11T12:09:54.667Z,11.6
2019-05-11T12:10:54.726Z,11.7
2019-05-11T12:11:54.764Z,11.9
2019-05-11T12:12:54.825Z,12
2019-05-11T12:13:54.820Z,12.1
2019-05-11T12:14:54.907Z,12.1
2019-05-11T12:15:54.967Z,11.9
2019-05-11T12:17:04.758Z,11.7
2019-05-11T12:17:55.044Z,11.8
2019-05-11T12:18:55.060Z,11.8
2019-05-11T12:19:55.085Z,11.8
2019-05-11T12:20:55.142Z,11.7
2019-05-11T12:21:55.190Z,11.7
2019-05-11T12:22:55.205Z,11.5
2019-05-11T12:23:55.198Z,11.5
2019-05-11T12:24:55.333Z,11.8
2019-05-11T12:25:55.261Z,12.1
2019-05-11T12:26:55.286Z,12.3
2019-05-11T12:27:57.469Z,12.5
2019-05-11T12:28:57.537Z,12.6
2019-05-11T12:29:55.403Z,12.6
2019-05-11T12:30:55.487Z,12.5
2019-05-11T12:31:55.491Z,12.4
2019-05-11T12:32:57.536Z,12.5
2019-05-11T12:33:55.556Z,12.7
2019-05-11T12:34:55.614Z,12.8
2019-05-11T12:35:55.616Z,12.8
2019-05-11T12:36:57.882Z,12.8
2019-05-11T12:37:55.674Z,12.6
2019-05-11T12:38:57.866Z,12.5
2019-05-11T12:39:55.702Z,12.6
2019-05-11T12:40:57.866Z,12.8
2019-05-11T12:41:57.939Z,12.8
2019-05-11T12:42:55.855Z,12.6
2019-05-11T12:43:57.747Z,12.4
2019-05-11T12:44:57.846Z,12.2
2019-05-11T12:45:55.942Z,12.3
2019-05-11T12:46:58.048Z,12.5
2019-05-11T12:47:58.439Z,12.7
2019-05-11T12:48:57.161Z,12.6
2019-05-11T12:49:56.072Z,12.4
2019-05-11T12:50:56.108Z,12.4
2019-05-11T12:51:58.053Z,12.5
2019-05-11T12:52:58.691Z,12.4
2019-05-11T12:53:57.621Z,12.5
2019-05-11T12:54:58.194Z,12.6
2019-05-11T12:55:58.717Z,12.7
2019-05-11T12:56:57.898Z,12.7
2019-05-11T12:57:59.061Z,12.8
2019-05-11T12:58:58.179Z,12.9
2019-05-11T12:59:58.199Z,12.9
2019-05-11T13:00:58.462Z,12.8
2019-05-11T13:01:58.754Z,12.8
2019-05-11T13:02:58.533Z,12.9
2019-05-11T13:03:58.016Z,13
2019-05-11T13:04:58.408Z,13.1
2019-05-11T13:05:58.392Z,13.2
2019-05-11T13:06:58.102Z,13.2
2019-05-11T13:07:58.389Z,13.3
2019-05-11T13:08:58.563Z,13.3
2019-05-11T13:09:57.967Z,13.3
2019-05-11T13:10:58.394Z,13.3
2019-05-11T13:11:58.518Z,13.3
2019-05-11T13:12:58.836Z,13.3
2019-05-11T13:13:58.854Z,13.4
2019-05-11T13:14:57.988Z,13.4
2019-05-11T13:15:58.471Z,13.4
2019-05-11T13:16:58.714Z,13.4
2019-05-11T13:17:58.087Z,13.4
2019-05-11T13:18:57.635Z,13.4
2019-05-11T13:19:58.539Z,13.4
2019-05-11T13:20:58.570Z,13.4
2019-05-11T13:21:58.738Z,13.4
2019-05-11T13:22:58.670Z,13.3
2019-05-11T13:23:57.665Z,13.3
2019-05-11T13:24:58.803Z,13.4
2019-05-11T13:25:58.492Z,13.5
2019-05-11T13:26:56.798Z,13.5
2019-05-11T13:27:58.062Z,13.5
2019-05-11T13:28:58.378Z,13.6
2019-05-11T13:29:58.933Z,13.6
2019-05-11T13:30:57.903Z,13.5
2019-05-11T13:31:58.868Z,13.6
2019-05-11T13:32:57.897Z,13.9
2019-05-11T13:33:58.477Z,13.9
2019-05-11T13:34:58.359Z,14
2019-05-11T13:35:57.846Z,13.9
2019-05-11T13:36:57.473Z,13.8
2019-05-11T13:37:58.433Z,13.8